Pular para o conteúdo principal

Postagens

Mostrando postagens de Fevereiro 10, 2011

AVIÃO FAZ POUSO DE EMERGÊNCIA EM MARIALVA, PARANÁ

O avião que pertence ao Aeroclube de Maringá pousou em meio a uma plantação de soja no distrito de Aquidaban. A Anac informou que haviam duas pessoas a bordo e que tiveram ferimentos leves. Todas as revisões da aeronave estavam em dia.

CompartilharDiggRec6Del.icio.usYahoo! BuzzTechnoratiGoogle BookmarksFacebookLinkkHouve um erro no preenchimento! Todos os campos são obrigatórios! Por favor, tente novamente. E-mail enviado com sucesso! Para enviar mais, basta preencher novamente. Seu nome: Seu e-mail: Enviar para | Escreva os e-mails das pessoas para as quais deseja enviar, separando-os endereços por vírgulas Seu comentário | Máximo de 500 caracteres (0) EnviarX fechar Um avião monomotor modelo Paulistinha AP4 com duas pessoas a bordo precisou fazer um pouso forçado no inicio da noite desta quinta-feira (10), em uma plantação de soja de Marialva, a aproximadamente 20 quilômetros de Maringá. O incidente aconteceu em uma propriedade rural no distrito de Aquidaban, região N…

PASSAREDO ENCERRA OPERAÇÕES EM BAURU NA PRÓXIMA SEGUNDA-FEIRA

A Passaredo Linhas Aéreas irá encerrar suas operações no aeroporto Moussa Tobias, após apenas um ano e cinco meses de atividades em Bauru. A partir de 14 de fevereiro, a empresa deixa de oferecer voos na cidade e também nos municípios de Presidente Prudente e Marília.

Segundo informou a assessoria de imprensa da Passaredo, a rotas de curta distância e a demanda insuficiente para a oferta de assentos das aeronaves utilizadas em Bauru foram os motivos que levaram a companhia a encerrar as operações. A assessoria destaca, entretanto, que os consumidores com passagens compradas para embarque em data posterior à próxima segunda-feira já estão sendo contatados para as devidas acomodações nos voos da Gol Linhas Aéreas. Se necessário, os bilhetes poderão ser trocados também na outra companhia que continua atuando na cidade, a TAM/Pantanal.

A reportagem do JC entrou em contato com a Azulpara saber se há expectativas de a empresa começar a operar na cidade, conforme tem sido especul…

ACIDENTE AÉREO MATA SEIS PESSOAS NA IRLANDA

Seis pessoas morreram na queda de um um avião da empresa FLIGHTLINE, registro EC-ITP, um Fairchild SA-227BC Metro III, no aeroporto de Cok, na Irlanda. Na hora do pouso a pista estava encoberta por densa neblina. 

O voo era proveniente de Belfast, na Irlanda do Norte. Havia 10 passageiros e dois tripulantes a bordo da aeronave. 
Antes da queda, o piloto tentou aterrissar uma vez, mas acabnou abortando a manobra, disseram autoridades. 
Metars:
EICK 101100Z 09009KT 1200N 5000S VCFG FEW001 BKN002 BKN005 06/06 Q1009 BECMG 3000
EICK 101030Z 09007KT 1800 R17/P2000 R35/P2000 BR FEW001 SCT002 BKN003 06/06 Q1010 BECMG VIS 5000
EICK 101000Z 09008KT 0400 R17/0600N R35/0450N FG BKN001 05/05 Q1010 NOSIG
EICK 100930Z 08005KT 050V110 0300 R17/0375N R35/0350N FG BKN001 04/04 Q1010 NOSIG
EICK 100900Z 06003KT 0300 R17/0325N R35/0450N FG SCT001 03/03 Q1010 BECMG 3000
EICK 100830Z 04004KT 0300 R17/0400 R35/0450 FG FEW001 02/02 Q1010 BECMG 3000
EICK 100800Z 01004KT 0400N FG FEW001 R17/0400 R35/P…